MUC600 EDDM-EDDS
Flight info
| Callsign | MUC600 |
|---|---|
| Flight time | 0h 37m |
| Altitude | 20000 |
| Route | RIDAR6S RIDAR L173 DODIL T127 TEKSI TEKSI1W |
| Aircraft | A319/M-SDE3FGHIRWY/LB1 |
Departure
| Time | 2026-05-04 07:35 |
|---|---|
| Airport | Munich Airport (EDDM) |
Arrival
| Time | 2026-05-04 08:12 |
|---|---|
| Airport | Stuttgart Airport (EDDS) |
| Time | Latitude | Longitude | Altitude | Speed | Heading |
|---|---|---|---|---|---|
| 2026-05-04 07:03 | 48.35694 | 11.77612 | 1483 ft | 0 kts | 263° |
| 2026-05-04 07:13 | 48.35694 | 11.77613 | 1485 ft | 0 kts | 263° |
| 2026-05-04 07:23 | 48.35695 | 11.77632 | 1474 ft | 3 kts | 263° |
| 2026-05-04 07:24 | 48.35698 | 11.77660 | 1481 ft | 3 kts | 263° |
| 2026-05-04 07:24 | 48.35700 | 11.77688 | 1474 ft | 3 kts | 263° |
| 2026-05-04 07:24 | 48.35702 | 11.77716 | 1475 ft | 3 kts | 271° |
| 2026-05-04 07:24 | 48.35695 | 11.77738 | 1479 ft | 2 kts | 348° |
| 2026-05-04 07:25 | 48.35690 | 11.77740 | 1481 ft | 0 kts | 355° |
| 2026-05-04 07:27 | 48.35692 | 11.77736 | 1480 ft | 1 kts | 325° |
| 2026-05-04 07:27 | 48.35675 | 11.77727 | 1485 ft | 4 kts | 170° |
| 2026-05-04 07:27 | 48.35646 | 11.77732 | 1482 ft | 5 kts | 173° |
| 2026-05-04 07:28 | 48.35606 | 11.77739 | 1480 ft | 8 kts | 173° |
| 2026-05-04 07:28 | 48.35535 | 11.77752 | 1480 ft | 12 kts | 173° |
| 2026-05-04 07:28 | 48.35434 | 11.77769 | 1479 ft | 17 kts | 174° |
| 2026-05-04 07:28 | 48.35304 | 11.77791 | 1485 ft | 21 kts | 174° |
| 2026-05-04 07:29 | 48.35155 | 11.77815 | 1485 ft | 22 kts | 174° |
| 2026-05-04 07:29 | 48.35004 | 11.77842 | 1479 ft | 20 kts | 172° |
| 2026-05-04 07:29 | 48.34879 | 11.77875 | 1476 ft | 12 kts | 143° |
| 2026-05-04 07:29 | 48.34868 | 11.77988 | 1480 ft | 10 kts | 110° |
| 2026-05-04 07:30 | 48.34806 | 11.78038 | 1481 ft | 10 kts | 172° |
| 2026-05-04 07:30 | 48.34737 | 11.78052 | 1485 ft | 6 kts | 172° |
| 2026-05-04 07:30 | 48.34731 | 11.78053 | 1485 ft | 1 kts | 172° |
| 2026-05-04 07:30 | 48.34723 | 11.78055 | 1475 ft | 2 kts | 172° |
| 2026-05-04 07:31 | 48.34710 | 11.78058 | 1482 ft | 2 kts | 172° |
| 2026-05-04 07:31 | 48.34691 | 11.78061 | 1485 ft | 3 kts | 172° |
| 2026-05-04 07:33 | 48.34767 | 11.79239 | 1485 ft | 25 kts | 83° |
| 2026-05-04 07:33 | 48.34741 | 11.79552 | 1484 ft | 21 kts | 162° |
| 2026-05-04 07:33 | 48.34606 | 11.79495 | 1485 ft | 21 kts | 221° |
| 2026-05-04 07:33 | 48.34515 | 11.79320 | 1480 ft | 21 kts | 233° |
| 2026-05-04 07:34 | 48.34424 | 11.79138 | 1481 ft | 22 kts | 233° |
| 2026-05-04 07:34 | 48.34364 | 11.78936 | 1479 ft | 21 kts | 263° |
| 2026-05-04 07:34 | 48.34345 | 11.78713 | 1485 ft | 22 kts | 263° |
| 2026-05-04 07:34 | 48.34313 | 11.78317 | 1486 ft | 72 kts | 263° |
| 2026-05-04 07:35 | 48.34254 | 11.77555 | 1486 ft | 125 kts | 263° |
| 2026-05-04 07:35 | 48.34134 | 11.75926 | 1679 ft | 165 kts | 264° |
| 2026-05-04 07:35 | 48.34002 | 11.74223 | 2383 ft | 163 kts | 264° |
| 2026-05-04 07:35 | 48.33882 | 11.72543 | 3087 ft | 163 kts | 265° |
| 2026-05-04 07:36 | 48.33816 | 11.71614 | 3392 ft | 169 kts | 265° |
| 2026-05-04 07:36 | 48.33680 | 11.69741 | 3753 ft | 192 kts | 264° |
| 2026-05-04 07:38 | 48.33924 | 11.51825 | 8759 ft | 285 kts | 296° |
| 2026-05-04 07:38 | 48.34863 | 11.49179 | 9774 ft | 289 kts | 295° |
| 2026-05-04 07:38 | 48.35824 | 11.46478 | 10478 ft | 302 kts | 295° |
| 2026-05-04 07:38 | 48.36846 | 11.43587 | 10951 ft | 322 kts | 295° |
| 2026-05-04 07:39 | 48.37915 | 11.40566 | 11747 ft | 328 kts | 295° |
| 2026-05-04 07:39 | 48.39001 | 11.37487 | 12626 ft | 332 kts | 295° |
| 2026-05-04 07:39 | 48.40088 | 11.34394 | 13508 ft | 336 kts | 295° |
| 2026-05-04 07:39 | 48.41188 | 11.31250 | 14315 ft | 340 kts | 295° |
| 2026-05-04 07:40 | 48.42288 | 11.28102 | 15061 ft | 343 kts | 295° |
| 2026-05-04 07:40 | 48.43418 | 11.24868 | 15829 ft | 347 kts | 295° |
| 2026-05-04 07:40 | 48.44546 | 11.21635 | 16583 ft | 350 kts | 295° |
| 2026-05-04 07:40 | 48.45679 | 11.18383 | 17346 ft | 352 kts | 295° |
| 2026-05-04 07:41 | 48.46823 | 11.15090 | 18095 ft | 356 kts | 295° |
| 2026-05-04 07:41 | 48.47974 | 11.11776 | 18737 ft | 359 kts | 295° |
| 2026-05-04 07:41 | 48.49136 | 11.08431 | 18976 ft | 360 kts | 295° |
| 2026-05-04 07:41 | 48.50298 | 11.05084 | 19046 ft | 360 kts | 295° |
| 2026-05-04 07:42 | 48.51456 | 11.01739 | 19056 ft | 360 kts | 295° |
| 2026-05-04 07:42 | 48.51513 | 11.01573 | 19057 ft | 360 kts | 295° |
| 2026-05-04 07:42 | 48.51822 | 11.00678 | 19054 ft | 359 kts | 295° |
| 2026-05-04 07:42 | 48.52975 | 10.97340 | 19191 ft | 359 kts | 295° |
| 2026-05-04 07:43 | 48.54167 | 10.93883 | 19441 ft | 361 kts | 295° |
| 2026-05-04 07:43 | 48.55322 | 10.90533 | 19680 ft | 362 kts | 295° |
| 2026-05-04 07:43 | 48.56484 | 10.87155 | 19928 ft | 364 kts | 295° |
| 2026-05-04 07:43 | 48.57651 | 10.83758 | 20028 ft | 361 kts | 295° |
| 2026-05-04 07:44 | 48.58865 | 10.80542 | 20062 ft | 346 kts | 302° |
| 2026-05-04 07:44 | 48.60439 | 10.77764 | 20064 ft | 343 kts | 311° |
| 2026-05-04 07:44 | 48.62088 | 10.75174 | 20046 ft | 338 kts | 311° |
| 2026-05-04 07:44 | 48.63696 | 10.72628 | 19760 ft | 333 kts | 310° |
| 2026-05-04 07:45 | 48.65283 | 10.70103 | 19377 ft | 330 kts | 310° |
| 2026-05-04 07:45 | 48.66859 | 10.67589 | 19002 ft | 329 kts | 310° |
| 2026-05-04 07:45 | 48.68431 | 10.65078 | 18638 ft | 327 kts | 310° |
| 2026-05-04 07:45 | 48.69994 | 10.62584 | 18252 ft | 326 kts | 310° |
| 2026-05-04 07:46 | 48.71426 | 10.59954 | 17837 ft | 321 kts | 299° |
| 2026-05-04 07:46 | 48.72370 | 10.56930 | 17449 ft | 315 kts | 285° |
| 2026-05-04 07:46 | 48.72788 | 10.53711 | 17069 ft | 310 kts | 271° |
| 2026-05-04 07:46 | 48.72692 | 10.50485 | 16701 ft | 306 kts | 261° |
| 2026-05-04 07:47 | 48.72424 | 10.47291 | 16342 ft | 304 kts | 261° |
| 2026-05-04 07:47 | 48.72162 | 10.44122 | 15996 ft | 303 kts | 261° |
| 2026-05-04 07:47 | 48.71905 | 10.40966 | 15663 ft | 301 kts | 261° |
| 2026-05-04 07:49 | 48.70127 | 10.19337 | 13348 ft | 290 kts | 260° |
| 2026-05-04 07:49 | 48.69867 | 10.16279 | 12973 ft | 289 kts | 260° |
| 2026-05-04 07:49 | 48.69607 | 10.13258 | 12597 ft | 288 kts | 260° |
| 2026-05-04 07:50 | 48.69349 | 10.10257 | 12225 ft | 288 kts | 260° |
| 2026-05-04 07:50 | 48.69090 | 10.07262 | 11856 ft | 287 kts | 260° |
| 2026-05-04 07:50 | 48.68828 | 10.04266 | 11511 ft | 286 kts | 260° |
| 2026-05-04 07:50 | 48.68570 | 10.01284 | 11146 ft | 286 kts | 260° |
| 2026-05-04 07:51 | 48.68340 | 9.98260 | 10778 ft | 286 kts | 264° |
| 2026-05-04 07:51 | 48.68288 | 9.95246 | 10403 ft | 286 kts | 266° |
| 2026-05-04 07:51 | 48.68243 | 9.92243 | 10063 ft | 286 kts | 265° |
| 2026-05-04 07:51 | 48.68173 | 9.89239 | 9700 ft | 284 kts | 265° |
| 2026-05-04 07:52 | 48.68075 | 9.86266 | 9302 ft | 282 kts | 264° |
| 2026-05-04 07:52 | 48.67955 | 9.83314 | 8901 ft | 280 kts | 264° |
| 2026-05-04 07:52 | 48.67822 | 9.80419 | 8516 ft | 278 kts | 263° |
| 2026-05-04 07:52 | 48.67683 | 9.77508 | 8150 ft | 277 kts | 264° |
| 2026-05-04 07:53 | 48.67539 | 9.74581 | 8279 ft | 282 kts | 264° |
| 2026-05-04 07:54 | 48.61644 | 9.56549 | 10033 ft | 280 kts | 228° |
| 2026-05-04 07:55 | 48.60800 | 9.55025 | 10030 ft | 279 kts | 228° |
| 2026-05-04 07:55 | 48.59555 | 9.52776 | 10027 ft | 279 kts | 228° |
| 2026-05-04 07:55 | 48.58307 | 9.50527 | 10030 ft | 279 kts | 228° |
| 2026-05-04 07:55 | 48.57057 | 9.48281 | 10031 ft | 279 kts | 228° |
| 2026-05-04 07:56 | 48.55813 | 9.46027 | 10028 ft | 280 kts | 230° |
| 2026-05-04 07:56 | 48.54756 | 9.43555 | 10029 ft | 282 kts | 240° |
| 2026-05-04 07:56 | 48.53988 | 9.40832 | 10028 ft | 284 kts | 249° |
| 2026-05-04 07:56 | 48.53452 | 9.37999 | 10028 ft | 285 kts | 251° |
| 2026-05-04 07:57 | 48.52906 | 9.35083 | 10030 ft | 285 kts | 251° |
| 2026-05-04 07:57 | 48.52363 | 9.32215 | 10026 ft | 285 kts | 251° |
| 2026-05-04 07:57 | 48.51823 | 9.29379 | 10029 ft | 284 kts | 251° |
| 2026-05-04 07:57 | 48.51276 | 9.26515 | 10026 ft | 284 kts | 251° |
| 2026-05-04 07:58 | 48.50730 | 9.23652 | 10027 ft | 284 kts | 251° |
| 2026-05-04 07:58 | 48.50184 | 9.20786 | 10027 ft | 284 kts | 251° |
| 2026-05-04 07:58 | 48.49641 | 9.17933 | 10026 ft | 284 kts | 251° |
| 2026-05-04 07:58 | 48.49093 | 9.15067 | 10026 ft | 284 kts | 251° |
| 2026-05-04 07:59 | 48.48543 | 9.12208 | 10026 ft | 284 kts | 251° |
| 2026-05-04 07:59 | 48.47993 | 9.09347 | 10033 ft | 284 kts | 251° |
| 2026-05-04 07:59 | 48.47442 | 9.06477 | 10026 ft | 285 kts | 251° |
| 2026-05-04 07:59 | 48.46904 | 9.03662 | 10026 ft | 273 kts | 251° |
| 2026-05-04 08:00 | 48.46388 | 9.00967 | 10025 ft | 264 kts | 251° |
| 2026-05-04 08:00 | 48.45877 | 8.98318 | 10031 ft | 263 kts | 250° |
| 2026-05-04 08:00 | 48.45366 | 8.95680 | 10032 ft | 262 kts | 250° |
| 2026-05-04 08:02 | 48.46761 | 8.77605 | 9491 ft | 237 kts | 288° |
| 2026-05-04 08:02 | 48.47354 | 8.75303 | 9361 ft | 235 kts | 288° |
| 2026-05-04 08:02 | 48.47941 | 8.73014 | 9230 ft | 234 kts | 288° |
| 2026-05-04 08:03 | 48.48528 | 8.70739 | 9097 ft | 232 kts | 288° |
| 2026-05-04 08:03 | 48.49113 | 8.68472 | 8971 ft | 231 kts | 288° |
| 2026-05-04 08:03 | 48.49697 | 8.66219 | 8845 ft | 230 kts | 288° |
| 2026-05-04 08:03 | 48.50449 | 8.64087 | 8719 ft | 233 kts | 306° |
| 2026-05-04 08:04 | 48.51669 | 8.62477 | 8580 ft | 236 kts | 328° |
| 2026-05-04 08:04 | 48.53207 | 8.61625 | 8460 ft | 238 kts | 350° |
| 2026-05-04 08:04 | 48.54853 | 8.61665 | 8332 ft | 238 kts | 12° |
| 2026-05-04 08:04 | 48.56380 | 8.62602 | 8207 ft | 238 kts | 34° |
| 2026-05-04 08:05 | 48.57577 | 8.64305 | 8083 ft | 237 kts | 56° |
| 2026-05-04 08:05 | 48.58278 | 8.66525 | 7955 ft | 234 kts | 76° |
| 2026-05-04 08:05 | 48.58719 | 8.68863 | 7838 ft | 235 kts | 76° |
| 2026-05-04 08:05 | 48.59178 | 8.71244 | 7707 ft | 234 kts | 75° |
| 2026-05-04 08:06 | 48.59634 | 8.73591 | 7576 ft | 234 kts | 75° |
| 2026-05-04 08:06 | 48.60097 | 8.75981 | 7195 ft | 239 kts | 75° |
| 2026-05-04 08:06 | 48.60565 | 8.78389 | 6861 ft | 237 kts | 75° |
| 2026-05-04 08:06 | 48.61023 | 8.80745 | 6568 ft | 230 kts | 74° |
| 2026-05-04 08:08 | 48.63836 | 8.95278 | 4652 ft | 191 kts | 75° |
| 2026-05-04 08:08 | 48.64207 | 8.97207 | 4394 ft | 191 kts | 74° |
| 2026-05-04 08:10 | 48.67093 | 9.12255 | 2399 ft | 161 kts | 74° |
| 2026-05-04 08:11 | 48.67395 | 9.13832 | 2186 ft | 144 kts | 73° |
| 2026-05-04 08:11 | 48.67946 | 9.16726 | 1805 ft | 133 kts | 75° |
| 2026-05-04 08:11 | 48.68122 | 9.17634 | 1671 ft | 132 kts | 75° |
| 2026-05-04 08:12 | 48.68394 | 9.19014 | 1501 ft | 129 kts | 77° |
| 2026-05-04 08:12 | 48.68640 | 9.20322 | 1330 ft | 126 kts | 76° |
| 2026-05-04 08:12 | 48.68849 | 9.21431 | 1288 ft | 105 kts | 75° |
| 2026-05-04 08:12 | 48.68986 | 9.22195 | 1286 ft | 45 kts | 71° |
| 2026-05-04 08:13 | 48.69057 | 9.22535 | 1286 ft | 21 kts | 344° |
| 2026-05-04 08:13 | 48.69159 | 9.22524 | 1285 ft | 18 kts | 349° |
| 2026-05-04 08:13 | 48.69208 | 9.22414 | 1285 ft | 14 kts | 248° |
| 2026-05-04 08:13 | 48.69179 | 9.22268 | 1285 ft | 15 kts | 255° |
| 2026-05-04 08:14 | 48.69152 | 9.22111 | 1285 ft | 15 kts | 255° |
| 2026-05-04 08:14 | 48.69122 | 9.21954 | 1285 ft | 16 kts | 251° |
| 2026-05-04 08:14 | 48.69086 | 9.21787 | 1286 ft | 17 kts | 254° |
| 2026-05-04 08:16 | 48.68828 | 9.20394 | 1288 ft | 23 kts | 252° |
| 2026-05-04 08:16 | 48.68782 | 9.20161 | 1285 ft | 23 kts | 254° |
| 2026-05-04 08:16 | 48.68780 | 9.19972 | 1288 ft | 16 kts | 308° |
| 2026-05-04 08:17 | 48.68868 | 9.19862 | 1285 ft | 15 kts | 324° |
| 2026-05-04 08:17 | 48.68882 | 9.19787 | 1285 ft | 7 kts | 269° |
| 2026-05-04 08:17 | 48.68883 | 9.19755 | 1285 ft | 1 kts | 277° |
| 2026-05-04 08:17 | 48.68892 | 9.19742 | 1288 ft | 2 kts | 332° |
| 2026-05-04 08:19 | 48.68953 | 9.19716 | 1285 ft | 0 kts | 344° |